createdAt,value
2023-02-15T00:00:49.745Z,43.57
2023-02-15T00:05:59.863Z,44.57
2023-02-15T00:11:13.460Z,44.47
2023-02-15T00:16:20.324Z,46.75
2023-02-15T00:21:27.215Z,42.40
2023-02-15T00:26:34.726Z,38.43
2023-02-15T00:31:42.437Z,46.67
2023-02-15T00:36:49.853Z,54.40
2023-02-15T00:41:56.790Z,55.87
2023-02-15T00:47:03.861Z,39.53
2023-02-15T00:52:10.733Z,45.50
2023-02-15T00:57:17.597Z,39.27
2023-02-15T01:02:24.659Z,38.40
2023-02-15T01:07:31.874Z,39.37
2023-02-15T01:12:38.572Z,41.23
2023-02-15T01:17:47.002Z,42.13
2023-02-15T01:22:55.272Z,43.33
2023-02-15T01:28:02.300Z,46.93
2023-02-15T01:33:09.298Z,55.43
2023-02-15T01:38:17.054Z,45.63
2023-02-15T01:43:26.211Z,38.47
2023-02-15T01:48:33.418Z,49.67
2023-02-15T01:53:47.174Z,64.27
2023-02-15T01:58:58.415Z,70.97
2023-02-15T02:04:24.383Z,40.63
2023-02-15T02:09:33.657Z,76.50
2023-02-15T02:14:42.259Z,53.37
2023-02-15T02:20:05.014Z,228.60
2023-02-15T02:25:46.392Z,467.50
2023-02-15T02:31:15.844Z,105.10
2023-02-15T02:36:32.942Z,69.67
2023-02-15T02:41:58.800Z,514.97
2023-02-15T02:47:15.539Z,368.07
2023-02-15T02:52:49.777Z,39.77
2023-02-15T02:58:06.442Z,97.97
2023-02-15T03:03:20.453Z,96.40
2023-02-15T03:08:31.793Z,142.97
2023-02-15T03:13:39.298Z,95.90
2023-02-15T03:18:57.962Z,167.63
2023-02-15T03:24:16.323Z,208.03
2023-02-15T03:29:26.332Z,242.87
2023-02-15T03:34:33.149Z,97.07
2023-02-15T03:39:44.339Z,786.27
2023-02-15T03:44:58.558Z,625.70
2023-02-15T03:50:14.013Z,222.53
2023-02-15T03:55:20.691Z,124.80
2023-02-15T04:01:06.381Z,376.47
2023-02-15T04:06:13.846Z,704.27
2023-02-15T04:11:21.016Z,487.43
2023-02-15T04:16:31.329Z,258.57
2023-02-15T04:21:56.208Z,189.73
2023-02-15T04:27:04.558Z,345.93
2023-02-15T04:32:11.472Z,352.40
2023-02-15T04:37:18.332Z,290.13
2023-02-15T04:42:25.427Z,141.23
2023-02-15T04:47:32.479Z,269.83
2023-02-15T04:52:39.995Z,412.77
2023-02-15T04:57:46.722Z,72.83
2023-02-15T05:02:53.521Z,364.23
2023-02-15T05:08:00.670Z,381.70
2023-02-15T05:13:07.585Z,379.40
2023-02-15T05:18:14.447Z,137.63
2023-02-15T05:23:21.989Z,182.33
2023-02-15T05:28:31.094Z,38.27
2023-02-15T05:33:39.266Z,240.63
2023-02-15T05:38:46.121Z,138.27
2023-02-15T05:43:53.613Z,242.43
2023-02-15T05:49:00.331Z,221.43
2023-02-15T05:54:07.044Z,211.00
2023-02-15T05:59:14.282Z,255.47
2023-02-15T06:04:21.694Z,198.07
2023-02-15T06:09:28.645Z,92.87
2023-02-15T06:14:37.028Z,72.97
2023-02-15T06:19:44.034Z,160.07
2023-02-15T06:24:53.688Z,126.57
2023-02-15T06:30:00.750Z,81.40
2023-02-15T06:35:07.933Z,106.77
2023-02-15T06:40:15.068Z,408.77
2023-02-15T06:45:21.849Z,175.40
2023-02-15T06:50:28.777Z,55.57
2023-02-15T06:55:35.543Z,512.40
2023-02-15T07:00:42.358Z,401.03
2023-02-15T07:05:50.115Z,339.40
2023-02-15T07:11:01.735Z,367.87
2023-02-15T07:16:08.746Z,372.13
2023-02-15T07:21:15.656Z,429.60
2023-02-15T07:26:22.484Z,71.07
2023-02-15T07:31:29.444Z,113.87
2023-02-15T07:36:36.057Z,115.53
2023-02-15T07:41:43.479Z,85.83
2023-02-15T07:46:50.406Z,191.90
2023-02-15T07:51:57.361Z,374.60
2023-02-15T07:57:04.641Z,274.63
2023-02-15T08:02:16.914Z,518.80
2023-02-15T08:07:23.643Z,311.17
2023-02-15T08:12:31.891Z,68.53
2023-02-15T08:17:41.702Z,95.73
2023-02-15T08:22:48.467Z,242.90
2023-02-15T08:27:55.181Z,402.43
2023-02-15T08:33:02.232Z,50.80
2023-02-15T08:38:08.960Z,91.50
2023-02-15T08:43:40.026Z,65.07
2023-02-15T08:48:24.628Z,26.03
2023-02-15T08:53:31.518Z,29.03
2023-02-15T08:58:38.812Z,26.10
2023-02-15T09:03:46.074Z,25.33
2023-02-15T09:08:53.770Z,27.87
2023-02-15T09:14:08.621Z,25.93
2023-02-15T09:19:15.833Z,25.27
2023-02-15T09:24:23.238Z,29.80
2023-02-15T09:29:30.501Z,33.63
2023-02-15T09:34:37.432Z,25.00
2023-02-15T09:39:48.831Z,27.30
2023-02-15T09:45:18.839Z,31.10
2023-02-15T09:51:00.624Z,30.70
2023-02-15T09:56:36.740Z,33.70
2023-02-15T10:02:31.570Z,38.33
2023-02-15T10:08:01.422Z,32.13
2023-02-15T10:13:33.630Z,32.27
2023-02-15T10:18:48.073Z,32.07
2023-02-15T10:24:21.887Z,33.20
2023-02-15T10:29:49.188Z,35.13
2023-02-15T10:35:15.118Z,32.20
2023-02-15T10:41:01.250Z,33.40
2023-02-15T10:46:21.245Z,31.47
2023-02-15T10:51:35.693Z,28.03
2023-02-15T10:56:58.448Z,30.13
2023-02-15T11:02:36.720Z,34.50
2023-02-15T11:07:47.472Z,34.73
2023-02-15T11:12:54.383Z,30.90
2023-02-15T11:18:32.238Z,26.97
2023-02-15T11:23:46.168Z,28.63
2023-02-15T11:34:20.208Z,32.25
2023-02-15T11:39:30.303Z,27.70
2023-02-15T11:45:03.842Z,26.50
2023-02-15T11:50:18.006Z,43.30
2023-02-15T11:55:26.727Z,30.57
2023-02-15T12:00:46.422Z,26.57
2023-02-15T12:05:57.741Z,28.50
2023-02-15T12:11:15.200Z,30.60
2023-02-15T12:16:21.832Z,23.50
2023-02-15T12:21:42.313Z,24.63
2023-02-15T12:27:02.188Z,26.93
2023-02-15T12:32:16.062Z,25.53
2023-02-15T12:37:27.722Z,21.77
2023-02-15T12:42:46.324Z,24.73
2023-02-15T12:48:13.963Z,25.47
2023-02-15T12:53:34.448Z,24.80
2023-02-15T12:58:45.832Z,23.80
2023-02-15T13:04:06.019Z,23.27
2023-02-15T13:09:30.314Z,20.37
2023-02-15T13:14:38.142Z,23.30
2023-02-15T13:19:50.142Z,24.10
2023-02-15T13:25:04.055Z,24.77
2023-02-15T13:35:20.864Z,24.27
2023-02-15T13:40:46.982Z,23.97
2023-02-15T13:46:28.239Z,24.57
2023-02-15T13:51:45.480Z,27.50
2023-02-15T13:57:26.892Z,24.97
2023-02-15T14:02:54.434Z,29.17
2023-02-15T14:08:31.258Z,25.57
2023-02-15T14:13:47.903Z,24.60
2023-02-15T14:19:02.489Z,28.47
2023-02-15T14:24:44.568Z,28.53
2023-02-15T14:30:03.094Z,30.57
2023-02-15T14:35:19.977Z,29.77
2023-02-15T14:40:57.512Z,34.77
2023-02-15T14:46:26.516Z,26.63
2023-02-15T14:51:49.476Z,30.33
2023-02-15T14:57:07.679Z,33.27
2023-02-15T15:02:18.646Z,30.47
2023-02-15T15:07:41.330Z,30.83
2023-02-15T15:13:02.333Z,32.77
2023-02-15T15:18:15.985Z,29.00
2023-02-15T15:23:27.276Z,32.30
2023-02-15T15:28:41.775Z,33.70
2023-02-15T15:34:07.946Z,33.73
2023-02-15T15:39:41.171Z,39.07
2023-02-15T15:45:07.459Z,28.80
2023-02-15T15:50:21.106Z,30.37
2023-02-15T15:55:31.700Z,27.67
2023-02-15T16:00:48.792Z,32.50
2023-02-15T16:06:00.565Z,30.67
2023-02-15T16:11:24.109Z,33.97
2023-02-15T16:16:33.338Z,30.53
2023-02-15T16:21:41.192Z,31.70
2023-02-15T16:27:17.611Z,32.43
2023-02-15T16:32:28.542Z,35.77
2023-02-15T16:37:38.048Z,33.87
2023-02-15T16:42:45.056Z,35.53
2023-02-15T16:47:56.419Z,33.73
2023-02-15T16:53:05.238Z,31.07
2023-02-15T16:58:20.162Z,36.10
2023-02-15T17:03:28.761Z,35.30
2023-02-15T17:08:45.128Z,41.37
2023-02-15T17:14:11.362Z,37.13
2023-02-15T17:19:22.711Z,43.27
2023-02-15T17:24:36.860Z,39.90
2023-02-15T17:29:47.646Z,46.50
2023-02-15T17:35:11.473Z,43.47
2023-02-15T17:40:31.387Z,44.60
2023-02-15T17:45:48.351Z,44.53
2023-02-15T17:50:55.542Z,44.83
2023-02-15T17:56:04.197Z,45.63
2023-02-15T18:01:35.708Z,44.37
2023-02-15T18:07:02.872Z,41.93
2023-02-15T18:12:39.311Z,44.73
2023-02-15T18:17:49.503Z,40.97
2023-02-15T18:22:56.958Z,43.17
2023-02-15T18:28:03.737Z,44.60
2023-02-15T18:33:27.172Z,46.80
2023-02-15T18:38:34.037Z,38.70
2023-02-15T18:43:41.035Z,44.20
2023-02-15T18:48:47.985Z,44.23
2023-02-15T18:53:55.976Z,44.80
2023-02-15T18:59:02.873Z,42.50
2023-02-15T19:04:09.909Z,38.20
2023-02-15T19:09:26.493Z,39.17
2023-02-15T19:14:35.147Z,42.70
2023-02-15T19:19:42.079Z,43.10
2023-02-15T19:24:50.659Z,50.17
2023-02-15T19:30:03.623Z,41.87
2023-02-15T19:35:21.335Z,44.97
2023-02-15T19:40:34.782Z,44.07
2023-02-15T19:45:41.555Z,42.73
2023-02-15T19:50:53.104Z,44.87
2023-02-15T19:56:00.037Z,50.63
2023-02-15T20:01:07.365Z,43.27
2023-02-15T20:06:19.044Z,46.20
2023-02-15T20:11:26.831Z,49.73
2023-02-15T20:16:33.761Z,48.30
2023-02-15T20:21:44.260Z,48.97
2023-02-15T20:26:51.595Z,43.83
2023-02-15T20:32:00.421Z,46.73
2023-02-15T20:37:09.652Z,47.83
2023-02-15T20:42:17.147Z,42.73
2023-02-15T20:47:27.591Z,47.07
2023-02-15T20:52:34.283Z,47.00
2023-02-15T20:57:41.440Z,53.87
2023-02-15T21:02:50.545Z,49.20
2023-02-15T21:07:58.196Z,51.43
2023-02-15T21:13:05.322Z,43.37
2023-02-15T21:18:34.312Z,36.27
2023-02-15T21:23:46.406Z,32.47
2023-02-15T21:28:53.442Z,27.07
2023-02-15T21:34:00.361Z,27.37
2023-02-15T21:39:08.039Z,32.37
2023-02-15T21:44:40.594Z,39.50
2023-02-15T21:49:47.762Z,32.87
2023-02-15T21:54:54.845Z,44.70
2023-02-15T22:00:01.620Z,44.00
2023-02-15T22:05:12.805Z,41.07
2023-02-15T22:10:22.341Z,42.07
2023-02-15T22:15:37.902Z,38.43
2023-02-15T22:20:44.960Z,34.43
2023-02-15T22:25:59.709Z,32.37
2023-02-15T22:31:10.576Z,39.10
2023-02-15T22:36:30.508Z,25.67
2023-02-15T22:41:37.371Z,31.90
2023-02-15T22:46:44.324Z,27.63
2023-02-15T22:51:52.892Z,36.30
2023-02-15T22:57:01.497Z,32.30
2023-02-15T23:02:09.902Z,25.13
2023-02-15T23:07:19.989Z,25.70
2023-02-15T23:12:34.102Z,12.90
2023-02-15T23:17:40.926Z,12.13
2023-02-15T23:22:47.990Z,11.17
2023-02-15T23:27:57.798Z,8.60
2023-02-15T23:33:04.763Z,13.87
2023-02-15T23:38:27.244Z,17.43
2023-02-15T23:43:34.125Z,10.67
2023-02-15T23:48:42.397Z,13.80
2023-02-15T23:53:49.738Z,13.07
2023-02-15T23:58:56.815Z,8.70
